Time;durP1;ratioP1;P1;durP2;ratioP2;P2;SDS_P1;SDS_P2;PMS_P1;PMS_P2;Temp;Humidity;BMP_temperature;BMP_pressure;BME280_temperature;BME280_humidity;BME280_pressure;Samples;Min_cycle;Max_cycle;Signal;HPM_P1;HPM_P2
2022/05/03 04:16:08;;;;;;;18.65;10.77;;;;;;;9.39;100.00;100261.25;5575678;32;254603;-89
2022/05/03 04:19:12;;;;;;;13.45;10.05;;;;;;;9.39;100.00;100266.53;5563104;32;32460;-88
2022/05/03 04:22:26;;;;;;;21.10;10.70;;;;;;;9.44;100.00;100266.31;5562937;32;32698;-89
2022/05/03 04:25:31;;;;;;;15.40;9.77;;;;;;;9.51;100.00;100267.75;5563444;32;32843;-89
2022/05/03 04:28:35;;;;;;;13.52;10.18;;;;;;;9.60;100.00;100263.81;5561134;32;33704;-88
2022/05/03 04:31:38;;;;;;;13.82;10.82;;;;;;;9.67;100.00;100269.69;5563022;32;34540;-88
2022/05/03 04:34:41;;;;;;;17.37;11.25;;;;;;;9.71;100.00;100273.91;5560279;32;34412;-86
2022/05/03 04:37:43;;;;;;;13.80;10.85;;;;;;;9.88;100.00;100270.44;5564165;32;34450;-87
2022/05/03 04:40:46;;;;;;;14.48;10.75;;;;;;;10.04;100.00;100267.91;5562593;32;32508;-87
2022/05/03 04:43:50;;;;;;;14.55;11.18;;;;;;;10.20;100.00;100265.34;5563827;32;33841;-87
2022/05/03 04:46:53;;;;;;;12.70;10.70;;;;;;;10.36;100.00;100260.13;5562569;32;32460;-87
2022/05/03 04:49:56;;;;;;;15.52;11.00;;;;;;;10.54;99.94;100262.81;5563846;32;34410;-87
2022/05/03 04:52:59;;;;;;;19.00;11.40;;;;;;;10.70;99.37;100267.34;5563471;32;35066;-87
2022/05/03 04:56:01;;;;;;;14.30;11.10;;;;;;;10.89;96.93;100268.06;5563657;32;32286;-87
2022/05/03 04:59:04;;;;;;;13.65;11.15;;;;;;;11.01;94.76;100271.84;5558182;32;33229;-86
2022/05/03 05:02:07;;;;;;;16.15;11.60;;;;;;;11.22;93.52;100263.66;5562105;32;34778;-87
2022/05/03 05:05:10;;;;;;;12.13;10.52;;;;;;;11.41;92.12;100274.16;5549995;32;33868;-86
2022/05/03 05:08:14;;;;;;;15.82;10.85;;;;;;;11.72;88.35;100277.75;5549313;32;33189;-87
2022/05/03 05:11:17;;;;;;;13.00;10.90;;;;;;;11.98;89.29;100274.59;5560238;32;34419;-87
2022/05/03 05:14:20;;;;;;;17.50;10.57;;;;;;;12.06;88.75;100274.19;5564588;32;35216;-87
2022/05/03 05:17:23;;;;;;;14.15;10.43;;;;;;;12.13;86.54;100271.06;5564169;32;35018;-87
2022/05/03 05:20:26;;;;;;;14.20;10.68;;;;;;;12.24;84.49;100266.91;5550726;32;32296;-87
2022/05/03 05:23:29;;;;;;;13.23;10.07;;;;;;;12.46;82.08;100263.84;5543386;32;34229;-86
2022/05/03 05:26:35;;;;;;;14.70;10.50;;;;;;;13.73;81.32;100270.34;5535703;32;32685;-88
2022/05/03 05:29:37;;;;;;;16.35;10.48;;;;;;;15.30;73.49;100269.62;5582343;26;34547;-88
2022/05/03 05:32:40;;;;;;;15.20;10.77;;;;;;;16.63;67.87;100263.47;5587004;26;34278;-89
2022/05/03 05:35:43;;;;;;;13.02;10.32;;;;;;;17.52;64.42;100260.13;5596601;26;34449;-89
2022/05/03 05:38:46;;;;;;;12.07;9.90;;;;;;;17.89;62.26;100266.97;5541889;32;33368;-89
2022/05/03 05:41:56;;;;;;;11.50;8.10;;;;;;;18.10;60.74;100259.00;5537349;32;32501;-89
2022/05/03 05:44:58;;;;;;;10.98;8.43;;;;;;;18.26;59.35;100263.09;5552337;32;33961;-89
2022/05/03 05:48:01;;;;;;;9.85;7.78;;;;;;;18.56;55.98;100266.88;5593239;26;34014;-90
2022/05/03 05:51:04;;;;;;;9.55;7.57;;;;;;;18.56;55.06;100266.88;5570336;32;34478;-89
2022/05/03 05:54:07;;;;;;;10.20;8.48;;;;;;;18.30;56.82;100267.22;5552644;31;32506;-90
2022/05/03 05:57:10;;;;;;;9.27;8.27;;;;;;;18.35;56.64;100265.00;5556872;32;32329;-89
2022/05/03 06:00:14;;;;;;;17.17;9.13;;;;;;;18.01;56.67;100265.97;5549402;32;33057;-91
2022/05/03 06:03:17;;;;;;;10.13;9.13;;;;;;;17.97;57.15;100269.91;5617559;26;33712;-89
2022/05/03 06:06:19;;;;;;;14.80;8.85;;;;;;;18.04;56.82;100256.81;5548231;32;32342;-89
2022/05/03 06:09:23;;;;;;;9.82;8.63;;;;;;;18.70;55.94;100262.97;5542315;32;34048;-88
2022/05/03 06:12:25;;;;;;;11.75;8.45;;;;;;;20.40;51.82;100259.62;5542032;32;32450;-89
2022/05/03 06:15:29;;;;;;;9.65;8.10;;;;;;;22.78;45.85;100256.44;5528974;32;33582;-89
2022/05/03 06:18:32;;;;;;;10.95;7.60;;;;;;;24.15;39.86;100256.47;5531210;32;33728;-90
2022/05/03 06:21:34;;;;;;;11.65;8.45;;;;;;;25.10;37.00;100256.00;5539465;32;32833;-89
2022/05/03 06:24:38;;;;;;;10.00;7.55;;;;;;;24.58;36.88;100256.25;5547210;32;34098;-89
2022/05/03 06:27:41;;;;;;;9.02;7.70;;;;;;;23.47;38.30;100261.03;5551210;32;34223;-89
2022/05/03 06:30:43;;;;;;;10.52;7.90;;;;;;;22.64;39.00;100257.87;5548247;32;32817;-89
2022/05/03 06:33:46;;;;;;;12.50;8.35;;;;;;;21.81;41.96;100261.53;5547753;32;32967;-89
2022/05/03 06:36:49;;;;;;;10.35;8.07;;;;;;;22.23;40.92;100258.38;5548883;32;33876;-89
2022/05/03 06:39:52;;;;;;;12.57;7.82;;;;;;;21.58;41.42;100262.94;5536532;32;35048;-88
2022/05/03 06:42:55;;;;;;;10.70;8.65;;;;;;;21.90;41.09;100262.47;5545909;32;33421;-89
2022/05/03 06:45:59;;;;;;;10.45;8.02;;;;;;;22.03;40.51;100262.06;5540000;32;33894;-87
2022/05/03 06:49:01;;;;;;;10.93;8.45;;;;;;;23.03;39.43;100260.13;5531185;32;32353;-89
2022/05/03 06:52:04;;;;;;;15.93;8.82;;;;;;;22.29;40.44;100260.47;5528172;32;32258;-88
2022/05/03 06:55:08;;;;;;;14.82;8.55;;;;;;;23.01;40.02;100259.44;5551275;32;33991;-89
2022/05/03 06:58:10;;;;;;;13.57;9.00;;;;;;;22.81;41.33;100256.97;5551824;32;34396;-90
2022/05/03 07:01:15;;;;;;;13.40;9.15;;;;;;;23.34;40.24;100262.34;5564725;32;33992;-89
2022/05/03 07:04:19;;;;;;;10.50;9.40;;;;;;;23.02;39.12;100261.13;5558341;32;33305;-89
2022/05/03 07:07:21;;;;;;;13.45;8.57;;;;;;;23.75;37.38;100256.22;5549792;32;32396;-88
2022/05/03 07:10:25;;;;;;;9.18;8.15;;;;;;;22.32;39.56;100260.13;5550309;32;33872;-88
2022/05/03 07:13:28;;;;;;;10.15;8.27;;;;;;;21.89;41.60;100262.62;5549153;32;33626;-88
2022/05/03 07:16:30;;;;;;;13.45;7.43;;;;;;;22.56;39.86;100253.25;5554291;32;33802;-88
2022/05/03 07:22:55;;;;;;;8.30;6.82;;;;;;;23.54;37.46;100262.91;5547847;32;33541;-88
2022/05/03 07:25:59;;;;;;;6.95;6.25;;;;;;;24.12;36.46;100259.50;5544189;32;32789;-88
2022/05/03 07:29:03;;;;;;;11.07;6.45;;;;;;;23.12;35.53;100263.72;5528811;32;32269;-88
2022/05/03 07:32:06;;;;;;;10.63;7.03;;;;;;;22.16;38.43;100268.94;5529541;32;34281;-88
2022/05/03 07:35:10;;;;;;;8.57;6.43;;;;;;;22.10;38.99;100264.16;5530266;32;33516;-87
2022/05/03 07:38:12;;;;;;;10.70;6.95;;;;;;;22.84;37.91;100267.47;5532652;32;34385;-88
2022/05/03 07:41:15;;;;;;;10.07;6.12;;;;;;;22.99;39.00;100259.59;5530333;32;32245;-88
2022/05/03 07:44:20;;;;;;;9.15;7.25;;;;;;;24.17;37.43;100262.56;5533555;32;33186;-88
2022/05/03 07:47:22;;;;;;;13.77;6.53;;;;;;;24.57;34.81;100256.44;5542389;32;34656;-86
2022/05/03 07:50:25;;;;;;;8.27;6.10;;;;;;;24.72;34.19;100254.72;5540900;32;33609;-87
2022/05/03 07:53:28;;;;;;;11.35;6.28;;;;;;;25.19;34.61;100252.22;5542105;32;34886;-87
2022/05/03 07:56:31;;;;;;;10.85;6.32;;;;;;;25.16;34.42;100258.03;5557062;32;33361;-86
2022/05/03 07:59:34;;;;;;;8.57;6.37;;;;;;;25.22;31.91;100260.03;5565673;32;34179;-86
2022/05/03 08:02:36;;;;;;;12.55;6.18;;;;;;;24.60;32.85;100251.50;5535317;32;33948;-86
2022/05/03 08:05:39;;;;;;;7.10;5.47;;;;;;;24.34;33.66;100257.16;5537207;32;33762;-87
2022/05/03 08:08:42;;;;;;;5.97;4.50;;;;;;;25.62;32.52;100254.63;5546030;32;33673;-87
2022/05/03 08:11:45;;;;;;;7.25;4.95;;;;;;;25.92;30.81;100251.19;5553414;32;33178;-85
2022/05/03 08:14:48;;;;;;;7.53;4.50;;;;;;;26.13;31.23;100257.84;5552624;32;33951;-85
2022/05/03 08:17:50;;;;;;;8.85;5.00;;;;;;;26.19;30.31;100251.69;5548617;32;32692;-86
2022/05/03 08:20:53;;;;;;;10.05;5.10;;;;;;;25.49;30.63;100254.31;5546503;32;32752;-87
2022/05/03 08:23:56;;;;;;;7.50;4.65;;;;;;;25.07;32.93;100250.91;5541864;32;33329;-90
2022/05/03 08:27:00;;;;;;;5.68;4.47;;;;;;;25.97;32.03;100252.34;5540854;32;34528;-91
2022/05/03 08:30:04;;;;;;;9.07;3.80;;;;;;;26.82;29.62;100254.16;5546821;32;32669;-91
2022/05/03 08:33:07;;;;;;;4.75;4.10;;;;;;;27.54;29.75;100251.78;5547771;32;33035;-87
2022/05/03 08:36:11;;;;;;;4.78;4.28;;;;;;;28.02;28.05;100249.59;5538495;32;32394;-87
2022/05/03 08:42:35;;;;;;;5.82;4.25;;;;;;;27.19;29.26;100248.84;5544801;32;32547;-87
2022/05/03 08:45:41;;;;;;;9.13;4.40;;;;;;;27.81;28.28;100257.56;5556733;32;34374;-86
2022/05/03 08:48:46;;;;;;;5.22;4.10;;;;;;;27.89;27.12;100250.28;5559560;32;33435;-87
2022/05/03 08:51:55;;;;;;;4.72;3.47;;;;;;;28.23;27.20;100251.47;5549393;32;32198;-88
2022/05/03 08:54:58;;;;;;;3.87;3.47;;;;;;;28.23;25.92;100246.03;5535368;32;32324;-87
2022/05/03 08:58:02;;;;;;;3.35;3.05;;;;;;;28.35;24.80;100238.16;5530540;32;32412;-87
2022/05/03 09:01:05;;;;;;;6.93;3.58;;;;;;;28.78;26.09;100240.78;5530809;32;34439;-88
2022/05/03 09:04:09;;;;;;;3.22;2.92;;;;;;;28.47;25.79;100242.00;5536525;32;34048;-87
2022/05/03 09:07:20;;;;;;;5.03;3.65;;;;;;;28.92;24.94;100238.16;5532182;32;33867;-87
2022/05/03 09:10:25;;;;;;;6.20;3.40;;;;;;;28.90;24.76;100238.34;5549532;32;34044;-87
2022/05/03 09:13:33;;;;;;;3.95;3.30;;;;;;;29.54;25.10;100240.97;5549297;32;33828;-86
2022/05/03 09:16:46;;;;;;;5.57;3.20;;;;;;;30.05;23.26;100238.75;5538501;32;34335;-88
2022/05/03 09:19:49;;;;;;;5.28;3.10;;;;;;;28.98;25.28;100236.50;5558816;32;33599;-87
2022/05/03 09:26:22;;;;;;;4.68;3.42;;;;;;;30.41;22.89;100224.91;5550549;32;34567;-87
2022/05/03 09:29:25;;;;;;;4.78;3.72;;;;;;;30.98;21.93;100216.19;5538774;32;33232;-87
2022/05/03 09:32:47;;;;;;;4.90;3.33;;;;;;;31.07;21.28;100220.34;5538212;32;32555;-88
2022/05/03 09:35:50;;;;;;;7.35;3.80;;;;;;;31.10;22.45;100219.06;5543907;32;35088;-92
2022/05/03 09:38:55;;;;;;;5.82;4.00;;;;;;;31.36;20.83;100220.06;5536630;32;32648;-89
2022/05/03 09:42:12;;;;;;;6.20;3.85;;;;;;;30.89;21.19;100223.78;5549515;32;34715;-88
2022/05/03 09:45:21;;;;;;;6.87;3.67;;;;;;;31.48;21.99;100226.53;5557844;32;34617;-88
2022/05/03 09:48:25;;;;;;;8.02;3.40;;;;;;;32.47;20.02;100222.47;5557110;32;33156;-88
2022/05/03 09:51:34;;;;;;;3.95;3.20;;;;;;;32.63;19.68;100225.72;5551176;32;32641;-88
2022/05/03 09:54:50;;;;;;;6.55;3.55;;;;;;;33.09;18.94;100214.44;5552925;32;33414;-88
2022/05/03 09:57:54;;;;;;;5.10;3.55;;;;;;;35.13;17.10;100211.78;5551555;32;34539;-89
2022/05/03 10:00:58;;;;;;;6.22;3.67;;;;;;;34.18;17.06;100204.41;5537129;32;32329;-89
2022/05/03 10:04:06;;;;;;;7.32;3.50;;;;;;;32.47;18.69;100211.50;5539865;32;33824;-88
2022/05/03 10:07:08;;;;;;;5.15;3.65;;;;;;;31.60;20.21;100205.59;5556872;32;33941;-88
2022/05/03 10:10:13;;;;;;;6.50;3.85;;;;;;;30.55;21.58;100196.47;5558405;32;34943;-88
2022/05/03 10:13:17;;;;;;;6.75;3.97;;;;;;;28.92;22.45;100191.75;5556098;32;34309;-88
2022/05/03 10:23:35;;;;;;;3.78;3.47;;;;;;;26.83;24.39;100197.84;5533372;32;33005;-92
2022/05/03 10:26:57;;;;;;;4.95;3.62;;;;;;;26.43;25.46;100189.97;5531587;32;34206;-92
2022/05/03 10:30:23;;;;;;;3.85;3.55;;;;;;;27.95;23.66;100181.41;5548703;32;33849;-88
2022/05/03 10:33:36;;;;;;;4.40;3.45;;;;;;;31.01;20.10;100182.87;5551974;32;33158;-88
2022/05/03 10:36:41;;;;;;;7.00;3.72;;;;;;;30.78;20.09;100182.31;5543583;32;32534;-87
2022/05/03 10:39:55;;;;;;;4.53;4.10;;;;;;;33.65;17.42;100179.44;5531204;32;35063;-87
2022/05/03 10:43:05;;;;;;;3.90;3.12;;;;;;;34.06;16.70;100187.91;5536878;32;33928;-87
2022/05/03 10:46:09;;;;;;;4.57;2.87;;;;;;;31.08;20.68;100183.72;5531689;32;33144;-86
2022/05/03 10:49:20;;;;;;;2.95;2.75;;;;;;;28.65;23.36;100191.56;5534195;32;34789;-86
2022/05/03 10:52:23;;;;;;;5.50;2.78;;;;;;;27.56;24.58;100187.06;5539786;32;32943;-87
2022/05/03 10:55:29;;;;;;;8.32;3.60;;;;;;;26.44;26.40;100175.34;5548986;32;34011;-87
2022/05/03 10:58:35;;;;;;;7.50;3.72;;;;;;;24.88;28.56;100186.03;5549882;32;33356;-88
2022/05/03 11:01:53;;;;;;;6.40;3.50;;;;;;;24.58;29.99;100180.34;5549421;32;34292;-88
2022/05/03 11:05:11;;;;;;;;;;;;;;;24.51;30.49;100176.63;5538075;32;34163;-88
2022/05/03 11:08:17;;;;;;;13.68;3.65;;;;;;;24.17;30.69;100173.13;5534949;32;34888;-85
2022/05/03 11:11:37;;;;;;;6.40;3.28;;;;;;;24.27;29.84;100175.66;5535512;32;35152;-89
2022/05/03 11:14:41;;;;;;;3.95;2.95;;;;;;;24.06;29.61;100173.44;5537581;32;33882;-86
2022/05/03 11:17:44;;;;;;;3.28;2.97;;;;;;;23.22;30.31;100166.19;5541337;32;34198;-87
2022/05/03 11:20:47;;;;;;;10.00;3.75;;;;;;;22.59;31.66;100177.25;5532610;32;34749;-88
2022/05/03 11:23:54;;;;;;;5.87;3.20;;;;;;;22.74;31.69;100167.53;5531838;32;32750;-86
2022/05/03 11:27:09;;;;;;;4.03;2.97;;;;;;;22.34;31.36;100167.09;5540370;32;33160;-86
2022/05/03 11:30:12;;;;;;;10.93;2.97;;;;;;;22.11;31.46;100171.34;5541546;32;32887;-85
2022/05/03 11:33:15;;;;;;;4.87;2.85;;;;;;;21.97;30.80;100170.88;5537095;32;34209;-86
2022/05/03 11:36:23;;;;;;;10.45;3.65;;;;;;;21.54;31.59;100165.25;5534729;32;32465;-86
2022/05/03 11:39:27;;;;;;;6.00;3.65;;;;;;;22.07;31.60;100163.53;5533517;32;34049;-86
2022/05/03 11:42:42;;;;;;;6.20;3.40;;;;;;;22.18;34.29;100165.13;5539197;32;33748;-86
2022/05/03 11:45:47;;;;;;;4.32;3.70;;;;;;;23.24;32.68;100154.19;5531931;32;34587;-85
2022/05/03 11:48:53;;;;;;;3.17;2.92;;;;;;;23.79;31.61;100149.22;5537015;32;35191;-85
2022/05/03 11:58:41;;;;;;;3.60;3.05;;;;;;;24.55;27.15;100145.47;5544865;32;34824;-85
2022/05/03 12:01:44;;;;;;;4.45;2.62;;;;;;;24.84;27.86;100157.56;5542008;32;33468;-86
2022/05/03 12:05:11;;;;;;;6.40;2.85;;;;;;;25.22;26.69;100151.47;5546399;32;33945;-86
2022/05/03 12:08:21;;;;;;;3.45;2.60;;;;;;;25.10;26.45;100147.47;5538702;32;35175;-90
2022/05/03 12:11:24;;;;;;;5.85;2.70;;;;;;;25.08;26.62;100144.91;5540703;32;34140;-86
2022/05/03 12:14:31;;;;;;;3.03;2.72;;;;;;;24.83;27.47;100152.34;5547464;32;34085;-86
2022/05/03 12:18:02;;;;;;;5.37;3.05;;;;;;;25.28;27.25;100141.75;5547634;32;33762;-86
2022/05/03 12:21:11;;;;;;;3.22;2.72;;;;;;;25.39;26.98;100137.81;5548884;32;34065;-86
2022/05/03 12:24:14;;;;;;;4.07;3.23;;;;;;;25.23;26.09;100147.72;5547851;32;34464;-86
2022/05/03 12:27:17;;;;;;;3.28;3.08;;;;;;;25.55;25.96;100143.13;5548050;32;34201;-86
2022/05/03 12:30:20;;;;;;;4.32;3.30;;;;;;;25.17;25.81;100143.00;5540800;32;34739;-86
2022/05/03 12:33:27;;;;;;;4.62;3.03;;;;;;;25.22;25.37;100148.75;5568207;32;33056;-86
2022/05/03 12:36:33;;;;;;;3.83;3.45;;;;;;;24.95;25.27;100142.78;5549676;32;34544;-86
2022/05/03 12:39:37;;;;;;;4.55;3.55;;;;;;;23.98;26.80;100141.78;5536126;32;34066;-87
2022/05/03 12:42:41;;;;;;;4.57;3.90;;;;;;;23.74;29.44;100129.09;5530397;32;34033;-86
2022/05/03 12:46:01;;;;;;;6.47;3.85;;;;;;;23.31;28.30;100140.03;5535460;32;34273;-87
2022/05/03 12:49:11;;;;;;;5.80;3.45;;;;;;;23.10;30.02;100130.50;5568441;32;34312;-86
2022/05/03 12:52:15;;;;;;;5.57;3.72;;;;;;;23.11;30.17;100116.81;5553423;32;34020;-86
2022/05/03 12:55:19;;;;;;;4.30;3.50;;;;;;;23.07;30.39;100117.31;5556229;32;32418;-85
2022/05/03 12:58:22;;;;;;;4.32;3.92;;;;;;;22.51;29.50;100113.16;5552734;32;36277;-84
2022/05/03 13:01:29;;;;;;;6.93;4.12;;;;;;;23.02;29.02;100117.78;5535734;32;34092;-85
2022/05/03 13:04:32;;;;;;;8.00;4.05;;;;;;;23.24;29.41;100108.19;5544798;32;34498;-85
2022/05/03 13:07:36;;;;;;;6.32;3.95;;;;;;;23.22;29.66;100117.50;5549852;32;32813;-85
2022/05/03 13:10:39;;;;;;;5.82;3.85;;;;;;;23.25;30.76;100114.47;5543161;32;33901;-84
2022/05/03 13:13:42;;;;;;;4.62;3.45;;;;;;;22.70;33.04;100111.25;5548666;32;35354;-85
2022/05/03 13:16:45;;;;;;;8.43;3.83;;;;;;;23.15;32.99;100103.78;5559297;32;32784;-85
2022/05/03 13:19:48;;;;;;;4.03;3.60;;;;;;;22.88;33.82;100105.75;5546716;32;33830;-85
2022/05/03 13:22:54;;;;;;;5.47;4.22;;;;;;;22.80;32.85;100111.13;5542017;32;34537;-90
2022/05/03 13:25:58;;;;;;;4.10;3.70;;;;;;;22.79;32.93;100117.53;5549294;32;33945;-90
2022/05/03 13:29:04;;;;;;;5.40;4.00;;;;;;;22.55;31.51;100108.31;5547037;32;34757;-90
2022/05/03 13:32:07;;;;;;;4.22;3.72;;;;;;;22.61;32.05;100111.22;5541170;32;33630;-86
2022/05/03 13:35:11;;;;;;;6.47;3.85;;;;;;;22.88;31.95;100109.28;5530647;32;33094;-86
2022/05/03 13:41:36;;;;;;;5.68;3.83;;;;;;;22.13;32.77;100101.81;5550152;32;34063;-85
2022/05/03 13:44:40;;;;;;;5.97;3.75;;;;;;;21.91;33.82;100104.87;5551195;32;33774;-85
2022/05/03 13:47:42;;;;;;;4.10;3.70;;;;;;;21.76;34.57;100104.56;5550307;32;35244;-87
2022/05/03 13:50:45;;;;;;;6.35;3.67;;;;;;;21.56;34.43;100098.47;5550425;32;34941;-86
2022/05/03 13:53:50;;;;;;;5.43;3.78;;;;;;;21.25;34.23;100098.84;5548524;32;32685;-86
2022/05/03 13:56:53;;;;;;;5.80;3.75;;;;;;;21.56;34.44;100098.47;5547836;32;32379;-86
2022/05/03 13:59:56;;;;;;;4.18;3.78;;;;;;;21.77;33.05;100097.34;5548033;32;32328;-86
2022/05/03 14:03:00;;;;;;;7.50;3.80;;;;;;;21.94;33.47;100092.91;5543642;32;32363;-86
2022/05/03 14:06:04;;;;;;;6.68;3.87;;;;;;;22.11;33.14;100096.56;5549812;32;33988;-86
2022/05/03 14:09:07;;;;;;;5.30;4.20;;;;;;;22.19;32.86;100085.78;5549341;32;32781;-86
2022/05/03 14:12:11;;;;;;;4.60;3.90;;;;;;;22.33;32.95;100099.75;5543598;32;32603;-86
2022/05/03 14:15:13;;;;;;;4.37;3.85;;;;;;;22.44;31.90;100104.00;5530301;32;34978;-85
2022/05/03 14:18:17;;;;;;;4.53;3.80;;;;;;;22.41;32.01;100096.22;5529610;32;33306;-85
2022/05/03 14:21:20;;;;;;;4.72;4.32;;;;;;;22.49;31.50;100104.38;5529935;32;32795;-85
2022/05/03 14:24:37;;;;;;;5.05;3.70;;;;;;;22.61;31.57;100092.31;5529628;32;33708;-85
2022/05/03 14:27:41;;;;;;;5.45;3.67;;;;;;;22.94;30.51;100098.84;5529372;32;32687;-85
2022/05/03 14:30:46;;;;;;;4.35;3.87;;;;;;;23.11;30.66;100108.69;5531163;32;34299;-85
2022/05/03 14:33:55;;;;;;;5.72;3.90;;;;;;;22.65;33.01;100109.03;5530221;32;32680;-85
2022/05/03 14:37:03;;;;;;;7.97;4.22;;;;;;;22.12;35.69;100106.34;5529429;32;33283;-85
2022/05/03 14:40:08;;;;;;;12.27;4.57;;;;;;;21.81;36.25;100104.97;5530398;32;32406;-86
2022/05/03 14:43:11;;;;;;;5.75;3.83;;;;;;;21.59;36.80;100108.97;5534905;32;32530;-85
2022/05/03 14:46:14;;;;;;;5.95;3.72;;;;;;;21.58;36.69;100123.47;5535675;32;34132;-85
2022/05/03 14:49:17;;;;;;;4.22;3.83;;;;;;;21.62;36.51;100127.53;5530010;32;34439;-85
2022/05/03 14:52:20;;;;;;;4.62;3.72;;;;;;;21.41;37.11;100126.00;5532398;32;34972;-85
2022/05/03 14:55:23;;;;;;;4.22;3.67;;;;;;;20.86;37.57;100127.75;5529046;32;33067;-85
2022/05/03 15:05:12;;;;;;;6.80;4.12;;;;;;;20.27;42.40;100125.25;5530936;32;34856;-85
2022/05/03 15:08:16;;;;;;;4.50;4.10;;;;;;;20.30;43.82;100133.06;5531540;32;32439;-86
2022/05/03 15:11:19;;;;;;;4.40;3.97;;;;;;;20.09;44.74;100135.94;5531475;32;33799;-86
2022/05/03 15:14:22;;;;;;;4.28;3.87;;;;;;;19.66;47.00;100136.22;5530671;32;34106;-86
2022/05/03 15:17:25;;;;;;;4.62;4.22;;;;;;;19.75;46.56;100139.03;5529858;32;34713;-86
2022/05/03 15:20:32;;;;;;;6.10;4.07;;;;;;;19.87;45.92;100142.44;5529179;32;32962;-86
2022/05/03 15:27:08;;;;;;;6.50;4.00;;;;;;;19.50;45.69;100138.63;5529972;32;32184;-85
2022/05/03 15:30:11;;;;;;;8.30;4.35;;;;;;;19.55;44.71;100132.84;5539701;32;34314;-85
2022/05/03 15:33:13;;;;;;;5.05;4.10;;;;;;;19.77;43.68;100123.62;5539788;32;33877;-85
